createdAt,value
2022-08-17T00:02:16.363Z,9.20
2022-08-17T00:07:27.417Z,9.80
2022-08-17T00:12:43.682Z,9.77
2022-08-17T00:17:48.044Z,10.27
2022-08-17T00:22:50.057Z,10.50
2022-08-17T00:27:51.956Z,10.37
2022-08-17T00:33:12.249Z,10.50
2022-08-17T00:38:17.877Z,10.23
2022-08-17T00:43:33.520Z,10.80
2022-08-17T00:48:35.289Z,10.97
2022-08-17T00:53:56.263Z,11.37
2022-08-17T00:58:57.949Z,10.63
2022-08-17T01:04:00.047Z,10.97
2022-08-17T01:09:02.053Z,11.00
2022-08-17T01:14:03.781Z,11.20
2022-08-17T01:19:09.279Z,11.83
2022-08-17T01:24:10.949Z,10.97
2022-08-17T01:29:12.714Z,11.50
2022-08-17T01:34:15.167Z,12.00
2022-08-17T01:39:50.355Z,13.00
2022-08-17T01:44:55.197Z,13.43
2022-08-17T01:49:56.885Z,11.63
2022-08-17T01:54:58.534Z,12.30
2022-08-17T02:00:00.469Z,12.43
2022-08-17T02:05:02.165Z,11.70
2022-08-17T02:10:05.485Z,11.50
2022-08-17T02:15:21.597Z,11.40
2022-08-17T02:20:41.778Z,11.80
2022-08-17T02:25:44.843Z,11.30
2022-08-17T02:31:00.992Z,11.77
2022-08-17T02:36:04.965Z,11.60
2022-08-17T02:41:06.761Z,11.70
2022-08-17T02:46:08.471Z,11.33
2022-08-17T02:51:10.161Z,11.30
2022-08-17T02:56:11.831Z,11.20
2022-08-17T03:01:13.649Z,11.40
2022-08-17T03:06:16.664Z,11.60
2022-08-17T03:11:18.337Z,11.40
2022-08-17T03:16:20.005Z,11.40
2022-08-17T03:21:21.670Z,11.73
2022-08-17T03:26:23.332Z,11.00
2022-08-17T03:31:24.997Z,11.87
2022-08-17T03:36:26.708Z,12.20
2022-08-17T03:41:28.413Z,11.57
2022-08-17T03:46:48.610Z,11.30
2022-08-17T03:52:09.127Z,10.30
2022-08-17T03:57:11.025Z,10.80
2022-08-17T04:02:26.869Z,10.30
2022-08-17T04:07:29.776Z,11.27
2022-08-17T04:12:42.351Z,11.90
2022-08-17T04:17:44.285Z,11.70
2022-08-17T04:22:59.544Z,10.23
2022-08-17T04:28:01.464Z,10.70
2022-08-17T04:33:08.666Z,11.30
2022-08-17T04:38:12.656Z,11.20
2022-08-17T04:43:17.562Z,12.00
2022-08-17T04:48:20.798Z,13.87
2022-08-17T04:53:22.462Z,14.50
2022-08-17T04:58:24.243Z,13.87
2022-08-17T05:03:25.931Z,13.90
2022-08-17T05:08:27.683Z,14.30
2022-08-17T05:13:29.756Z,16.87
2022-08-17T05:18:31.502Z,17.07
2022-08-17T05:23:42.078Z,15.47
2022-08-17T05:28:45.079Z,15.70
2022-08-17T05:33:47.735Z,14.57
2022-08-17T05:38:50.557Z,14.50
2022-08-17T05:43:56.197Z,14.40
2022-08-17T05:49:01.605Z,15.63
2022-08-17T05:54:13.168Z,15.47
2022-08-17T05:59:23.772Z,15.43
2022-08-17T06:04:47.973Z,15.93
2022-08-17T06:10:07.801Z,15.20
2022-08-17T06:15:24.855Z,15.57
2022-08-17T06:20:31.966Z,16.20
2022-08-17T06:25:39.036Z,17.70
2022-08-17T06:30:59.633Z,16.73
2022-08-17T06:36:09.667Z,17.07
2022-08-17T06:41:42.882Z,17.37
2022-08-17T06:46:48.531Z,15.10
2022-08-17T06:51:52.054Z,15.10
2022-08-17T06:57:18.866Z,15.23
2022-08-17T07:02:52.332Z,15.87
2022-08-17T07:08:01.736Z,16.50
2022-08-17T07:13:15.206Z,15.33
2022-08-17T07:18:16.868Z,15.20
2022-08-17T07:23:23.029Z,16.10
2022-08-17T07:28:34.920Z,15.27
2022-08-17T07:33:36.829Z,14.40
2022-08-17T07:38:54.762Z,14.90
2022-08-17T07:43:56.449Z,13.47
2022-08-17T07:49:03.050Z,13.30
2022-08-17T07:54:29.482Z,12.07
2022-08-17T07:59:35.645Z,11.67
2022-08-17T08:04:59.730Z,10.27
2022-08-17T08:10:14.061Z,11.17
2022-08-17T08:15:21.803Z,10.70
2022-08-17T08:20:52.306Z,10.57
2022-08-17T08:26:29.567Z,10.00
2022-08-17T08:31:57.574Z,9.20
2022-08-17T08:37:32.732Z,8.90
2022-08-17T08:42:42.802Z,8.97
2022-08-17T08:47:53.713Z,8.00
2022-08-17T08:53:21.268Z,8.30
2022-08-17T08:58:49.125Z,7.97
2022-08-17T09:04:25.011Z,8.07
2022-08-17T09:09:55.127Z,7.83
2022-08-17T09:15:12.727Z,7.30
2022-08-17T09:20:35.527Z,7.30
2022-08-17T09:25:55.256Z,6.73
2022-08-17T09:31:02.925Z,7.07
2022-08-17T09:36:08.383Z,6.60
2022-08-17T09:41:17.601Z,6.40
2022-08-17T09:46:25.714Z,6.90
2022-08-17T09:51:40.098Z,6.20
2022-08-17T09:57:05.904Z,6.37
2022-08-17T10:02:45.714Z,5.43
2022-08-17T10:08:11.185Z,5.40
2022-08-17T10:13:27.933Z,5.60
2022-08-17T10:18:37.631Z,5.00
2022-08-17T10:23:57.632Z,5.60
2022-08-17T10:29:06.620Z,5.70
2022-08-17T10:34:46.084Z,5.83
2022-08-17T10:40:18.066Z,5.20
2022-08-17T10:45:23.402Z,5.30
2022-08-17T10:50:55.596Z,5.73
2022-08-17T10:56:18.006Z,5.17
2022-08-17T11:01:29.347Z,4.33
2022-08-17T11:06:37.195Z,5.60
2022-08-17T11:11:47.667Z,4.50
2022-08-17T11:17:08.012Z,4.43
2022-08-17T11:22:31.298Z,6.00
2022-08-17T11:27:35.293Z,3.97
2022-08-17T11:32:47.802Z,3.90
2022-08-17T11:38:18.377Z,4.20
2022-08-17T11:43:48.404Z,3.40
2022-08-17T11:49:11.841Z,3.47
2022-08-17T11:54:33.231Z,3.33
2022-08-17T11:59:45.780Z,3.95
2022-08-17T12:05:12.814Z,3.75
2022-08-17T12:10:17.180Z,3.10
2022-08-17T12:15:21.960Z,4.57
2022-08-17T12:20:34.992Z,3.45
2022-08-17T12:25:36.501Z,3.35
2022-08-17T12:30:38.391Z,3.53
2022-08-17T12:35:40.137Z,4.00
2022-08-17T12:40:53.286Z,3.90
2022-08-17T12:45:57.221Z,3.40
2022-08-17T12:51:00.479Z,3.00
2022-08-17T12:56:02.429Z,2.83
2022-08-17T13:01:09.488Z,3.90
2022-08-17T13:06:14.247Z,3.15
2022-08-17T13:11:18.472Z,3.25
2022-08-17T13:16:27.895Z,3.75
2022-08-17T13:21:30.580Z,3.38
2022-08-17T13:26:38.408Z,3.20
2022-08-17T13:31:49.792Z,3.13
2022-08-17T13:37:29.820Z,3.30
2022-08-17T13:42:50.571Z,3.13
2022-08-17T13:48:13.502Z,3.50
2022-08-17T13:53:17.670Z,3.28
2022-08-17T13:58:27.550Z,3.05
2022-08-17T14:03:29.228Z,3.40
2022-08-17T14:08:30.927Z,13.73
2022-08-17T14:13:32.579Z,4.82
2022-08-17T14:18:55.762Z,3.90
2022-08-17T14:23:55.876Z,3.75
2022-08-17T14:28:57.540Z,4.00
2022-08-17T14:33:59.769Z,3.22
2022-08-17T14:39:01.420Z,3.60
2022-08-17T14:44:04.240Z,3.97
2022-08-17T14:49:05.972Z,3.77
2022-08-17T14:54:07.779Z,3.93
2022-08-17T14:59:09.424Z,3.70
2022-08-17T15:04:14.818Z,4.00
2022-08-17T15:09:16.897Z,3.93
2022-08-17T15:14:19.194Z,4.47
2022-08-17T15:19:20.850Z,4.90
2022-08-17T15:24:22.499Z,4.80
2022-08-17T15:29:24.147Z,4.57
2022-08-17T15:34:25.792Z,3.90
2022-08-17T15:39:27.473Z,4.40
2022-08-17T15:44:32.509Z,4.23
2022-08-17T15:49:39.177Z,4.70
2022-08-17T15:54:40.840Z,4.10
2022-08-17T15:59:47.356Z,4.67
2022-08-17T16:05:03.303Z,4.10
2022-08-17T16:10:06.635Z,5.00
2022-08-17T16:15:08.845Z,4.50
2022-08-17T16:20:20.069Z,4.40
2022-08-17T16:25:38.830Z,5.07
2022-08-17T16:30:47.823Z,4.40
2022-08-17T16:35:49.492Z,6.43
2022-08-17T16:40:51.161Z,7.37
2022-08-17T16:45:52.839Z,8.33
2022-08-17T16:51:03.126Z,9.20
2022-08-17T16:56:07.359Z,9.03
2022-08-17T17:01:09.043Z,9.63
2022-08-17T17:06:18.599Z,10.43
2022-08-17T17:11:26.844Z,9.67
2022-08-17T17:16:28.517Z,10.17
2022-08-17T17:21:37.746Z,10.20
2022-08-17T17:26:48.380Z,10.40
2022-08-17T17:32:05.795Z,8.90
2022-08-17T17:37:10.737Z,8.83
2022-08-17T17:42:20.244Z,9.67
2022-08-17T17:47:22.131Z,9.70
2022-08-17T17:52:36.030Z,8.93
2022-08-17T17:58:00.877Z,8.73
2022-08-17T18:03:08.213Z,8.60
2022-08-17T18:08:32.184Z,8.27
2022-08-17T18:14:23.318Z,9.73
2022-08-17T18:19:26.246Z,8.60
2022-08-17T18:24:42.033Z,10.70
2022-08-17T18:29:44.646Z,10.60
2022-08-17T18:34:48.734Z,11.00
2022-08-17T18:39:50.687Z,12.00
2022-08-17T18:44:55.174Z,11.90
2022-08-17T18:50:00.436Z,13.37
2022-08-17T18:55:22.661Z,12.97
2022-08-17T19:00:37.112Z,12.70
2022-08-17T19:05:40.512Z,12.20
2022-08-17T19:10:46.261Z,12.00
2022-08-17T19:16:14.891Z,12.60
2022-08-17T19:21:29.477Z,12.40
2022-08-17T19:26:54.549Z,12.40
2022-08-17T19:31:58.689Z,13.80
2022-08-17T19:37:06.888Z,13.80
2022-08-17T19:42:24.983Z,13.40
2022-08-17T19:47:54.248Z,13.83
2022-08-17T19:53:17.519Z,13.40
2022-08-17T19:58:44.947Z,13.57
2022-08-17T20:03:52.965Z,18.50
2022-08-17T20:09:24.496Z,16.07
2022-08-17T20:14:39.495Z,12.40
2022-08-17T20:20:03.984Z,11.43
2022-08-17T20:25:13.823Z,12.20
2022-08-17T20:30:34.035Z,12.70
2022-08-17T20:35:38.700Z,12.67
2022-08-17T20:41:00.953Z,13.30
2022-08-17T20:46:17.868Z,13.80
2022-08-17T20:51:31.462Z,14.27
2022-08-17T20:56:46.338Z,12.87
2022-08-17T21:02:18.283Z,12.37
2022-08-17T21:07:42.613Z,13.27
2022-08-17T21:12:49.942Z,13.07
2022-08-17T21:18:03.450Z,12.37
2022-08-17T21:23:40.292Z,12.40
2022-08-17T21:29:00.794Z,13.17
2022-08-17T21:34:15.126Z,13.50
2022-08-17T21:39:21.444Z,13.17
2022-08-17T21:44:33.832Z,13.60
2022-08-17T21:49:37.996Z,13.23
2022-08-17T21:54:42.497Z,13.60
2022-08-17T21:59:44.262Z,15.00
2022-08-17T22:04:56.883Z,15.37
2022-08-17T22:09:58.816Z,15.20
2022-08-17T22:15:02.304Z,14.70
2022-08-17T22:20:17.246Z,13.80
2022-08-17T22:25:22.418Z,14.40
2022-08-17T22:30:37.936Z,16.87
2022-08-17T22:35:43.150Z,15.30
2022-08-17T22:40:55.825Z,15.87
2022-08-17T22:45:58.656Z,16.07
2022-08-17T22:51:12.874Z,16.50
2022-08-17T22:56:36.265Z,17.40
2022-08-17T23:01:39.063Z,17.27
2022-08-17T23:06:43.787Z,17.33
2022-08-17T23:11:50.037Z,17.20
2022-08-17T23:16:52.083Z,18.80
2022-08-17T23:21:56.706Z,18.00
2022-08-17T23:26:58.931Z,17.70
2022-08-17T23:32:01.274Z,17.40
2022-08-17T23:37:04.310Z,18.67
2022-08-17T23:42:08.058Z,17.67
2022-08-17T23:47:10.419Z,17.20
2022-08-17T23:52:15.296Z,17.40
2022-08-17T23:57:19.364Z,17.03
